sensor_id;sensor_type;location;lat;lon;timestamp;temperature;humidity
53254;DHT22;39148;53.332;6.922;2023-05-14T00:00:25;18.50;88.20
53254;DHT22;39148;53.332;6.922;2023-05-14T00:02:51;18.40;88.70
53254;DHT22;39148;53.332;6.922;2023-05-14T00:05:17;18.50;88.80
53254;DHT22;39148;53.332;6.922;2023-05-14T00:07:42;18.20;88.60
53254;DHT22;39148;53.332;6.922;2023-05-14T00:10:08;18.30;88.70
53254;DHT22;39148;53.332;6.922;2023-05-14T00:12:34;18.20;87.50
53254;DHT22;39148;53.332;6.922;2023-05-14T00:15:00;18.40;88.70
53254;DHT22;39148;53.332;6.922;2023-05-14T00:17:26;18.30;88.80
53254;DHT22;39148;53.332;6.922;2023-05-14T00:22:17;18.20;87.30
53254;DHT22;39148;53.332;6.922;2023-05-14T00:24:43;18.10;88.30
53254;DHT22;39148;53.332;6.922;2023-05-14T00:27:09;18.40;88.70
53254;DHT22;39148;53.332;6.922;2023-05-14T00:32:02;18.30;88.30
53254;DHT22;39148;53.332;6.922;2023-05-14T00:34:28;18.20;88.90
53254;DHT22;39148;53.332;6.922;2023-05-14T00:36:53;18.20;88.90
53254;DHT22;39148;53.332;6.922;2023-05-14T00:41:45;18.20;86.90
53254;DHT22;39148;53.332;6.922;2023-05-14T00:44:11;18.20;87.80
53254;DHT22;39148;53.332;6.922;2023-05-14T00:46:36;18.20;88.40
53254;DHT22;39148;53.332;6.922;2023-05-14T00:49:02;18.20;88.80
53254;DHT22;39148;53.332;6.922;2023-05-14T00:51:28;18.30;89.00
53254;DHT22;39148;53.332;6.922;2023-05-14T00:53:54;17.00;85.60
53254;DHT22;39148;53.332;6.922;2023-05-14T00:56:20;18.20;87.80
53254;DHT22;39148;53.332;6.922;2023-05-14T00:58:46;18.10;89.00
53254;DHT22;39148;53.332;6.922;2023-05-14T01:16:53;18.00;87.00
53254;DHT22;39148;53.332;6.922;2023-05-14T01:19:41;18.10;85.90
53254;DHT22;39148;53.332;6.922;2023-05-14T01:24:33;18.00;89.10
53254;DHT22;39148;53.332;6.922;2023-05-14T01:27:34;17.90;87.00
53254;DHT22;39148;53.332;6.922;2023-05-14T01:32:37;17.90;87.00
53254;DHT22;39148;53.332;6.922;2023-05-14T01:35:04;17.90;87.00
53254;DHT22;39148;53.332;6.922;2023-05-14T01:37:31;17.90;86.70
53254;DHT22;39148;53.332;6.922;2023-05-14T01:39:58;17.80;89.00
53254;DHT22;39148;53.332;6.922;2023-05-14T01:42:24;17.90;89.00
53254;DHT22;39148;53.332;6.922;2023-05-14T01:44:50;17.80;87.50
53254;DHT22;39148;53.332;6.922;2023-05-14T01:47:16;17.90;88.90
53254;DHT22;39148;53.332;6.922;2023-05-14T01:49:42;17.90;89.20
53254;DHT22;39148;53.332;6.922;2023-05-14T01:52:07;17.70;89.10
53254;DHT22;39148;53.332;6.922;2023-05-14T01:56:59;17.60;88.70
53254;DHT22;39148;53.332;6.922;2023-05-14T01:59:25;17.70;89.10
53254;DHT22;39148;53.332;6.922;2023-05-14T02:04:17;17.60;87.00
53254;DHT22;39148;53.332;6.922;2023-05-14T02:09:09;17.80;89.30
53254;DHT22;39148;53.332;6.922;2023-05-14T02:14:01;17.80;88.20
53254;DHT22;39148;53.332;6.922;2023-05-14T02:18:53;17.70;88.00
53254;DHT22;39148;53.332;6.922;2023-05-14T02:21:19;17.70;88.80
53254;DHT22;39148;53.332;6.922;2023-05-14T02:23:45;17.60;89.20
53254;DHT22;39148;53.332;6.922;2023-05-14T02:28:38;17.60;87.60
53254;DHT22;39148;53.332;6.922;2023-05-14T02:31:04;17.60;88.60
53254;DHT22;39148;53.332;6.922;2023-05-14T02:33:30;17.50;89.20
53254;DHT22;39148;53.332;6.922;2023-05-14T02:38:22;17.50;87.40
53254;DHT22;39148;53.332;6.922;2023-05-14T02:40:48;17.40;89.30
53254;DHT22;39148;53.332;6.922;2023-05-14T02:43:13;17.50;89.30
53254;DHT22;39148;53.332;6.922;2023-05-14T02:48:05;17.40;87.00
53254;DHT22;39148;53.332;6.922;2023-05-14T02:50:31;17.40;88.50
53254;DHT22;39148;53.332;6.922;2023-05-14T02:52:56;17.60;89.00
53254;DHT22;39148;53.332;6.922;2023-05-14T02:55:22;17.50;89.20
53254;DHT22;39148;53.332;6.922;2023-05-14T02:57:51;17.50;86.80
53254;DHT22;39148;53.332;6.922;2023-05-14T03:00:18;17.50;88.80
53254;DHT22;39148;53.332;6.922;2023-05-14T03:07:36;17.40;88.90
53254;DHT22;39148;53.332;6.922;2023-05-14T03:10:02;17.30;89.30
53254;DHT22;39148;53.332;6.922;2023-05-14T03:12:28;17.40;88.90
53254;DHT22;39148;53.332;6.922;2023-05-14T03:14:54;17.20;89.30
53254;DHT22;39148;53.332;6.922;2023-05-14T03:17:19;17.40;89.50
53254;DHT22;39148;53.332;6.922;2023-05-14T03:19:45;17.40;89.50
53254;DHT22;39148;53.332;6.922;2023-05-14T03:22:11;17.30;89.50
53254;DHT22;39148;53.332;6.922;2023-05-14T03:24:38;17.30;87.40
53254;DHT22;39148;53.332;6.922;2023-05-14T03:29:30;17.20;89.30
53254;DHT22;39148;53.332;6.922;2023-05-14T03:31:56;17.30;89.50
53254;DHT22;39148;53.332;6.922;2023-05-14T03:36:48;17.30;88.30
53254;DHT22;39148;53.332;6.922;2023-05-14T03:39:13;17.40;89.30
53254;DHT22;39148;53.332;6.922;2023-05-14T03:53:57;17.10;87.20
53254;DHT22;39148;53.332;6.922;2023-05-14T03:56:23;17.10;88.90
53254;DHT22;39148;53.332;6.922;2023-05-14T03:58:49;17.20;88.10
53254;DHT22;39148;53.332;6.922;2023-05-14T04:01:15;17.20;87.20
53254;DHT22;39148;53.332;6.922;2023-05-14T04:18:17;17.10;89.60
53254;DHT22;39148;53.332;6.922;2023-05-14T04:23:09;17.00;88.90
53254;DHT22;39148;53.332;6.922;2023-05-14T04:30:27;16.90;89.60
53254;DHT22;39148;53.332;6.922;2023-05-14T04:35:19;17.10;86.90
53254;DHT22;39148;53.332;6.922;2023-05-14T04:40:12;16.90;89.30
53254;DHT22;39148;53.332;6.922;2023-05-14T04:42:38;16.90;87.20
53254;DHT22;39148;53.332;6.922;2023-05-14T04:45:05;17.10;89.20
53254;DHT22;39148;53.332;6.922;2023-05-14T04:52:23;17.00;87.00
53254;DHT22;39148;53.332;6.922;2023-05-14T04:54:49;17.00;89.70
53254;DHT22;39148;53.332;6.922;2023-05-14T04:57:15;17.00;87.00
53254;DHT22;39148;53.332;6.922;2023-05-14T05:04:33;17.00;89.70
53254;DHT22;39148;53.332;6.922;2023-05-14T05:16:43;16.80;89.70
53254;DHT22;39148;53.332;6.922;2023-05-14T05:21:35;16.90;89.30
53254;DHT22;39148;53.332;6.922;2023-05-14T05:33:46;16.80;89.70
53254;DHT22;39148;53.332;6.922;2023-05-14T05:36:12;16.90;89.70
53254;DHT22;39148;53.332;6.922;2023-05-14T05:48:23;16.70;89.80
53254;DHT22;39148;53.332;6.922;2023-05-14T05:50:49;16.80;89.70
53254;DHT22;39148;53.332;6.922;2023-05-14T05:53:15;16.60;88.10
53254;DHT22;39148;53.332;6.922;2023-05-14T05:55:41;16.80;88.10
53254;DHT22;39148;53.332;6.922;2023-05-14T06:10:18;16.80;89.20
53254;DHT22;39148;53.332;6.922;2023-05-14T06:12:44;16.70;87.20
53254;DHT22;39148;53.332;6.922;2023-05-14T06:15:10;16.80;88.80
53254;DHT22;39148;53.332;6.922;2023-05-14T06:17:37;16.70;87.20
53254;DHT22;39148;53.332;6.922;2023-05-14T06:20:03;16.70;87.70
53254;DHT22;39148;53.332;6.922;2023-05-14T06:22:33;16.70;87.30
53254;DHT22;39148;53.332;6.922;2023-05-14T06:24:58;16.80;89.80
53254;DHT22;39148;53.332;6.922;2023-05-14T06:27:24;16.50;89.70
53254;DHT22;39148;53.332;6.922;2023-05-14T06:32:16;16.80;87.60
53254;DHT22;39148;53.332;6.922;2023-05-14T06:34:42;16.50;87.50
53254;DHT22;39148;53.332;6.922;2023-05-14T06:39:35;16.70;87.80
53254;DHT22;39148;53.332;6.922;2023-05-14T06:42:01;16.70;88.50
53254;DHT22;39148;53.332;6.922;2023-05-14T06:46:53;16.60;88.60
53254;DHT22;39148;53.332;6.922;2023-05-14T06:49:19;16.80;89.60
53254;DHT22;39148;53.332;6.922;2023-05-14T06:51:45;16.70;87.20
53254;DHT22;39148;53.332;6.922;2023-05-14T06:59:03;16.60;89.80
53254;DHT22;39148;53.332;6.922;2023-05-14T07:13:41;16.70;89.90
53254;DHT22;39148;53.332;6.922;2023-05-14T07:16:07;16.70;87.80
53254;DHT22;39148;53.332;6.922;2023-05-14T07:18:36;16.70;89.10
53254;DHT22;39148;53.332;6.922;2023-05-14T07:21:02;16.60;89.80
53254;DHT22;39148;53.332;6.922;2023-05-14T07:23:31;16.80;89.90
53254;DHT22;39148;53.332;6.922;2023-05-14T07:25:57;16.70;89.80
53254;DHT22;39148;53.332;6.922;2023-05-14T07:38:07;16.80;89.90
53254;DHT22;39148;53.332;6.922;2023-05-14T07:42:58;16.60;87.50
53254;DHT22;39148;53.332;6.922;2023-05-14T07:45:24;16.80;88.20
53254;DHT22;39148;53.332;6.922;2023-05-14T07:50:19;16.70;87.80
53254;DHT22;39148;53.332;6.922;2023-05-14T07:55:12;16.80;89.90
53254;DHT22;39148;53.332;6.922;2023-05-14T08:00:05;16.80;87.70
53254;DHT22;39148;53.332;6.922;2023-05-14T08:02:33;16.80;88.40
53254;DHT22;39148;53.332;6.922;2023-05-14T08:04:59;16.80;89.80
53254;DHT22;39148;53.332;6.922;2023-05-14T08:09:53;16.70;89.70
53254;DHT22;39148;53.332;6.922;2023-05-14T08:14:45;16.80;88.40
53254;DHT22;39148;53.332;6.922;2023-05-14T08:17:11;16.80;89.20
53254;DHT22;39148;53.332;6.922;2023-05-14T08:22:03;16.90;88.10
53254;DHT22;39148;53.332;6.922;2023-05-14T08:29:21;16.80;89.60
53254;DHT22;39148;53.332;6.922;2023-05-14T08:31:49;16.90;87.60
53254;DHT22;39148;53.332;6.922;2023-05-14T08:36:41;17.00;89.10
53254;DHT22;39148;53.332;6.922;2023-05-14T08:39:07;17.00;89.60
53254;DHT22;39148;53.332;6.922;2023-05-14T08:41:33;16.90;89.60
53254;DHT22;39148;53.332;6.922;2023-05-14T08:44:18;17.10;86.30
53254;DHT22;39148;53.332;6.922;2023-05-14T08:46:44;17.00;87.80
53254;DHT22;39148;53.332;6.922;2023-05-14T08:49:41;16.90;86.30
53254;DHT22;39148;53.332;6.922;2023-05-14T08:52:08;16.90;87.40
53254;DHT22;39148;53.332;6.922;2023-05-14T08:57:02;17.20;89.60
53254;DHT22;39148;53.332;6.922;2023-05-14T09:01:58;17.20;89.50
53254;DHT22;39148;53.332;6.922;2023-05-14T09:06:52;17.10;87.30
53254;DHT22;39148;53.332;6.922;2023-05-14T09:09:18;17.10;86.90
53254;DHT22;39148;53.332;6.922;2023-05-14T09:11:51;17.10;87.50
53254;DHT22;39148;53.332;6.922;2023-05-14T09:16:48;17.30;88.90
53254;DHT22;39148;53.332;6.922;2023-05-14T09:19:14;17.20;86.70
53254;DHT22;39148;53.332;6.922;2023-05-14T09:21:44;17.20;87.30
53254;DHT22;39148;53.332;6.922;2023-05-14T09:24:19;17.30;87.10
53254;DHT22;39148;53.332;6.922;2023-05-14T09:26:52;17.20;87.20
53254;DHT22;39148;53.332;6.922;2023-05-14T09:31:45;17.30;87.40
53254;DHT22;39148;53.332;6.922;2023-05-14T09:34:11;16.50;86.30
53254;DHT22;39148;53.332;6.922;2023-05-14T09:39:03;17.40;86.30
53254;DHT22;39148;53.332;6.922;2023-05-14T09:43:56;17.50;87.70
53254;DHT22;39148;53.332;6.922;2023-05-14T09:46:22;17.50;88.30
53254;DHT22;39148;53.332;6.922;2023-05-14T09:48:48;17.60;86.60
53254;DHT22;39148;53.332;6.922;2023-05-14T09:51:15;17.60;86.40
53254;DHT22;39148;53.332;6.922;2023-05-14T09:53:45;17.60;87.20
53254;DHT22;39148;53.332;6.922;2023-05-14T09:58:37;17.70;87.90
53254;DHT22;39148;53.332;6.922;2023-05-14T10:01:03;17.70;86.60
53254;DHT22;39148;53.332;6.922;2023-05-14T10:03:30;17.80;87.40
53254;DHT22;39148;53.332;6.922;2023-05-14T10:06:02;17.70;86.50
53254;DHT22;39148;53.332;6.922;2023-05-14T10:08:42;17.70;86.40
53254;DHT22;39148;53.332;6.922;2023-05-14T10:11:13;17.80;86.40
53254;DHT22;39148;53.332;6.922;2023-05-14T10:13:43;18.10;86.50
53254;DHT22;39148;53.332;6.922;2023-05-14T10:16:15;17.90;86.40
53254;DHT22;39148;53.332;6.922;2023-05-14T10:18:46;18.00;87.20
53254;DHT22;39148;53.332;6.922;2023-05-14T10:21:19;18.00;86.90
53254;DHT22;39148;53.332;6.922;2023-05-14T10:23:46;18.00;86.30
53254;DHT22;39148;53.332;6.922;2023-05-14T10:26:12;18.00;88.20
53254;DHT22;39148;53.332;6.922;2023-05-14T10:28:38;18.10;85.40
53254;DHT22;39148;53.332;6.922;2023-05-14T10:31:04;18.00;88.20
53254;DHT22;39148;53.332;6.922;2023-05-14T10:33:45;18.10;86.10
53254;DHT22;39148;53.332;6.922;2023-05-14T10:36:11;18.10;88.10
53254;DHT22;39148;53.332;6.922;2023-05-14T10:38:37;18.10;87.90
53254;DHT22;39148;53.332;6.922;2023-05-14T10:41:06;18.20;87.60
53254;DHT22;39148;53.332;6.922;2023-05-14T10:43:36;18.30;88.10
53254;DHT22;39148;53.332;6.922;2023-05-14T10:48:29;18.30;85.90
53254;DHT22;39148;53.332;6.922;2023-05-14T10:50:56;18.40;86.90
53254;DHT22;39148;53.332;6.922;2023-05-14T10:53:35;18.40;87.70
53254;DHT22;39148;53.332;6.922;2023-05-14T10:56:06;18.40;86.40
53254;DHT22;39148;53.332;6.922;2023-05-14T10:58:35;18.60;87.90
53254;DHT22;39148;53.332;6.922;2023-05-14T11:03:29;18.50;86.10
53254;DHT22;39148;53.332;6.922;2023-05-14T11:08:22;18.60;87.70
53254;DHT22;39148;53.332;6.922;2023-05-14T11:13:15;18.70;87.80
53254;DHT22;39148;53.332;6.922;2023-05-14T11:15:43;18.80;87.70
53254;DHT22;39148;53.332;6.922;2023-05-14T11:18:12;18.60;87.50
53254;DHT22;39148;53.332;6.922;2023-05-14T11:20:38;18.70;87.50
53254;DHT22;39148;53.332;6.922;2023-05-14T11:23:04;18.80;85.20
53254;DHT22;39148;53.332;6.922;2023-05-14T11:27:57;19.00;85.50
53254;DHT22;39148;53.332;6.922;2023-05-14T11:30:25;19.10;87.60
53254;DHT22;39148;53.332;6.922;2023-05-14T11:37:51;19.00;86.20
53254;DHT22;39148;53.332;6.922;2023-05-14T11:40:17;19.30;86.60
53254;DHT22;39148;53.332;6.922;2023-05-14T11:45:12;19.30;87.30
53254;DHT22;39148;53.332;6.922;2023-05-14T11:47:40;19.30;87.20
53254;DHT22;39148;53.332;6.922;2023-05-14T11:50:06;19.30;85.00
53254;DHT22;39148;53.332;6.922;2023-05-14T11:52:39;19.40;87.20
53254;DHT22;39148;53.332;6.922;2023-05-14T11:55:12;19.60;84.50
53254;DHT22;39148;53.332;6.922;2023-05-14T11:57:39;19.40;84.90
53254;DHT22;39148;53.332;6.922;2023-05-14T12:00:09;19.40;84.70
53254;DHT22;39148;53.332;6.922;2023-05-14T12:02:37;19.50;87.00
53254;DHT22;39148;53.332;6.922;2023-05-14T12:05:04;19.60;86.10
53254;DHT22;39148;53.332;6.922;2023-05-14T12:07:31;19.60;86.90
53254;DHT22;39148;53.332;6.922;2023-05-14T12:10:00;19.60;84.80
53254;DHT22;39148;53.332;6.922;2023-05-14T12:12:26;19.60;87.00
53254;DHT22;39148;53.332;6.922;2023-05-14T12:14:52;19.50;86.80
53254;DHT22;39148;53.332;6.922;2023-05-14T12:17:19;19.80;87.00
53254;DHT22;39148;53.332;6.922;2023-05-14T12:19:47;19.70;86.80
53254;DHT22;39148;53.332;6.922;2023-05-14T12:22:16;19.90;85.10
53254;DHT22;39148;53.332;6.922;2023-05-14T12:24:43;19.70;86.80
53254;DHT22;39148;53.332;6.922;2023-05-14T12:27:20;19.70;86.90
53254;DHT22;39148;53.332;6.922;2023-05-14T12:29:46;19.90;86.80
53254;DHT22;39148;53.332;6.922;2023-05-14T12:32:13;19.90;86.70
53254;DHT22;39148;53.332;6.922;2023-05-14T12:34:38;20.00;86.70
53254;DHT22;39148;53.332;6.922;2023-05-14T12:37:05;20.00;86.60
53254;DHT22;39148;53.332;6.922;2023-05-14T12:39:34;20.00;85.60
53254;DHT22;39148;53.332;6.922;2023-05-14T12:42:00;20.10;86.60
53254;DHT22;39148;53.332;6.922;2023-05-14T12:44:26;20.10;87.00
53254;DHT22;39148;53.332;6.922;2023-05-14T12:46:52;20.10;86.70
53254;DHT22;39148;53.332;6.922;2023-05-14T12:49:18;20.20;86.70
53254;DHT22;39148;53.332;6.922;2023-05-14T12:51:44;20.20;86.60
53254;DHT22;39148;53.332;6.922;2023-05-14T12:54:11;20.20;86.70
53254;DHT22;39148;53.332;6.922;2023-05-14T12:56:37;20.30;86.60
53254;DHT22;39148;53.332;6.922;2023-05-14T12:59:03;20.10;86.30
53254;DHT22;39148;53.332;6.922;2023-05-14T13:01:29;20.20;86.30
53254;DHT22;39148;53.332;6.922;2023-05-14T13:03:55;20.30;86.40
53254;DHT22;39148;53.332;6.922;2023-05-14T13:06:21;20.40;86.20
53254;DHT22;39148;53.332;6.922;2023-05-14T13:08:46;20.60;86.40
53254;DHT22;39148;53.332;6.922;2023-05-14T13:11:12;20.50;86.30
53254;DHT22;39148;53.332;6.922;2023-05-14T13:13:38;20.50;86.20
53254;DHT22;39148;53.332;6.922;2023-05-14T13:16:04;20.50;86.50
53254;DHT22;39148;53.332;6.922;2023-05-14T13:18:29;20.60;86.30
53254;DHT22;39148;53.332;6.922;2023-05-14T13:23:21;20.70;86.20
53254;DHT22;39148;53.332;6.922;2023-05-14T13:25:47;20.60;86.20
53254;DHT22;39148;53.332;6.922;2023-05-14T13:28:13;20.70;86.20
53254;DHT22;39148;53.332;6.922;2023-05-14T13:30:38;20.70;86.10
53254;DHT22;39148;53.332;6.922;2023-05-14T13:33:04;20.80;86.40
53254;DHT22;39148;53.332;6.922;2023-05-14T13:35:30;20.80;86.20
53254;DHT22;39148;53.332;6.922;2023-05-14T13:37:56;20.80;84.20
53254;DHT22;39148;53.332;6.922;2023-05-14T13:40:21;20.90;86.00
53254;DHT22;39148;53.332;6.922;2023-05-14T13:42:47;20.80;86.30
53254;DHT22;39148;53.332;6.922;2023-05-14T13:45:13;20.80;85.90
53254;DHT22;39148;53.332;6.922;2023-05-14T13:47:38;21.00;86.20
53254;DHT22;39148;53.332;6.922;2023-05-14T13:50:04;21.00;86.10
53254;DHT22;39148;53.332;6.922;2023-05-14T13:52:30;21.00;86.00
53254;DHT22;39148;53.332;6.922;2023-05-14T13:54:56;21.10;86.10
53254;DHT22;39148;53.332;6.922;2023-05-14T13:57:22;21.00;83.70
53254;DHT22;39148;53.332;6.922;2023-05-14T13:59:48;21.20;85.80
53254;DHT22;39148;53.332;6.922;2023-05-14T14:02:14;21.20;84.00
53254;DHT22;39148;53.332;6.922;2023-05-14T14:04:40;21.10;86.00
53254;DHT22;39148;53.332;6.922;2023-05-14T14:07:05;21.20;85.80
53254;DHT22;39148;53.332;6.922;2023-05-14T14:09:31;21.10;83.90
53254;DHT22;39148;53.332;6.922;2023-05-14T14:12:04;21.10;82.90
53254;DHT22;39148;53.332;6.922;2023-05-14T14:14:30;21.20;83.80
53254;DHT22;39148;53.332;6.922;2023-05-14T14:16:56;21.20;83.90
53254;DHT22;39148;53.332;6.922;2023-05-14T14:19:22;21.30;86.50
53254;DHT22;39148;53.332;6.922;2023-05-14T14:21:48;21.20;85.70
53254;DHT22;39148;53.332;6.922;2023-05-14T14:24:13;21.30;84.40
53254;DHT22;39148;53.332;6.922;2023-05-14T14:26:39;21.30;85.60
53254;DHT22;39148;53.332;6.922;2023-05-14T14:29:05;21.40;86.00
53254;DHT22;39148;53.332;6.922;2023-05-14T14:31:30;21.30;83.80
53254;DHT22;39148;53.332;6.922;2023-05-14T14:33:56;21.50;83.80
53254;DHT22;39148;53.332;6.922;2023-05-14T14:36:22;21.50;83.80
53254;DHT22;39148;53.332;6.922;2023-05-14T14:38:47;21.60;85.60
53254;DHT22;39148;53.332;6.922;2023-05-14T14:41:13;21.60;83.60
53254;DHT22;39148;53.332;6.922;2023-05-14T14:43:39;21.50;83.60
53254;DHT22;39148;53.332;6.922;2023-05-14T14:46:05;21.60;85.90
53254;DHT22;39148;53.332;6.922;2023-05-14T14:48:34;21.50;85.50
53254;DHT22;39148;53.332;6.922;2023-05-14T14:51:03;21.60;83.60
53254;DHT22;39148;53.332;6.922;2023-05-14T14:53:29;21.60;85.50
53254;DHT22;39148;53.332;6.922;2023-05-14T14:55:55;21.60;83.50
53254;DHT22;39148;53.332;6.922;2023-05-14T14:58:22;21.60;85.40
53254;DHT22;39148;53.332;6.922;2023-05-14T15:00:50;21.60;83.30
53254;DHT22;39148;53.332;6.922;2023-05-14T15:03:17;21.70;83.50
53254;DHT22;39148;53.332;6.922;2023-05-14T15:05:42;21.60;83.50
53254;DHT22;39148;53.332;6.922;2023-05-14T15:08:09;21.60;83.20
53254;DHT22;39148;53.332;6.922;2023-05-14T15:10:34;21.70;83.40
53254;DHT22;39148;53.332;6.922;2023-05-14T15:13:05;21.80;83.00
53254;DHT22;39148;53.332;6.922;2023-05-14T15:15:32;21.80;83.80
53254;DHT22;39148;53.332;6.922;2023-05-14T15:17:58;21.80;85.30
53254;DHT22;39148;53.332;6.922;2023-05-14T15:20:23;21.80;83.30
53254;DHT22;39148;53.332;6.922;2023-05-14T15:22:49;21.90;83.20
53254;DHT22;39148;53.332;6.922;2023-05-14T15:25:19;21.80;82.50
53254;DHT22;39148;53.332;6.922;2023-05-14T15:27:45;21.80;83.10
53254;DHT22;39148;53.332;6.922;2023-05-14T15:30:11;21.80;83.00
53254;DHT22;39148;53.332;6.922;2023-05-14T15:32:37;21.80;82.60
53254;DHT22;39148;53.332;6.922;2023-05-14T15:35:03;21.90;83.00
53254;DHT22;39148;53.332;6.922;2023-05-14T15:37:38;21.80;82.80
53254;DHT22;39148;53.332;6.922;2023-05-14T15:40:05;22.00;82.00
53254;DHT22;39148;53.332;6.922;2023-05-14T15:42:39;21.90;82.80
53254;DHT22;39148;53.332;6.922;2023-05-14T15:45:07;21.70;83.10
53254;DHT22;39148;53.332;6.922;2023-05-14T15:47:33;21.90;82.80
53254;DHT22;39148;53.332;6.922;2023-05-14T15:49:59;22.00;83.00
53254;DHT22;39148;53.332;6.922;2023-05-14T15:52:25;21.90;82.90
53254;DHT22;39148;53.332;6.922;2023-05-14T15:54:51;22.00;82.80
53254;DHT22;39148;53.332;6.922;2023-05-14T15:57:16;22.00;82.90
53254;DHT22;39148;53.332;6.922;2023-05-14T15:59:42;22.00;84.60
53254;DHT22;39148;53.332;6.922;2023-05-14T16:02:09;21.90;82.80
53254;DHT22;39148;53.332;6.922;2023-05-14T16:04:35;22.00;82.80
53254;DHT22;39148;53.332;6.922;2023-05-14T16:07:02;21.90;82.60
53254;DHT22;39148;53.332;6.922;2023-05-14T16:09:28;21.90;82.80
53254;DHT22;39148;53.332;6.922;2023-05-14T16:11:54;22.10;85.00
53254;DHT22;39148;53.332;6.922;2023-05-14T16:14:20;22.00;84.70
53254;DHT22;39148;53.332;6.922;2023-05-14T16:16:47;22.00;84.70
53254;DHT22;39148;53.332;6.922;2023-05-14T16:19:13;21.90;82.80
53254;DHT22;39148;53.332;6.922;2023-05-14T16:21:39;22.00;82.60
53254;DHT22;39148;53.332;6.922;2023-05-14T16:24:05;22.00;82.60
53254;DHT22;39148;53.332;6.922;2023-05-14T16:26:31;22.20;82.30
53254;DHT22;39148;53.332;6.922;2023-05-14T16:28:57;21.90;82.50
53254;DHT22;39148;53.332;6.922;2023-05-14T16:31:23;22.00;82.60
53254;DHT22;39148;53.332;6.922;2023-05-14T16:33:48;22.00;82.60
53254;DHT22;39148;53.332;6.922;2023-05-14T16:36:14;22.00;82.40
53254;DHT22;39148;53.332;6.922;2023-05-14T16:38:41;22.00;82.50
53254;DHT22;39148;53.332;6.922;2023-05-14T16:41:07;22.00;82.40
53254;DHT22;39148;53.332;6.922;2023-05-14T16:43:34;21.90;82.40
53254;DHT22;39148;53.332;6.922;2023-05-14T16:46:00;21.90;83.00
53254;DHT22;39148;53.332;6.922;2023-05-14T16:48:26;22.00;82.90
53254;DHT22;39148;53.332;6.922;2023-05-14T16:50:52;22.00;84.50
53254;DHT22;39148;53.332;6.922;2023-05-14T16:53:18;22.00;82.40
53254;DHT22;39148;53.332;6.922;2023-05-14T16:55:44;22.00;84.40
53254;DHT22;39148;53.332;6.922;2023-05-14T16:58:09;21.90;82.40
53254;DHT22;39148;53.332;6.922;2023-05-14T17:00:35;21.90;82.20
53254;DHT22;39148;53.332;6.922;2023-05-14T17:03:01;22.00;82.30
53254;DHT22;39148;53.332;6.922;2023-05-14T17:05:27;21.90;82.30
53254;DHT22;39148;53.332;6.922;2023-05-14T17:07:53;22.00;82.30
53254;DHT22;39148;53.332;6.922;2023-05-14T17:10:19;21.80;82.10
53254;DHT22;39148;53.332;6.922;2023-05-14T17:12:44;21.90;82.30
53254;DHT22;39148;53.332;6.922;2023-05-14T17:15:10;21.80;82.20
53254;DHT22;39148;53.332;6.922;2023-05-14T17:17:36;21.80;82.20
53254;DHT22;39148;53.332;6.922;2023-05-14T17:20:03;21.90;82.20
53254;DHT22;39148;53.332;6.922;2023-05-14T17:22:30;21.60;81.90
53254;DHT22;39148;53.332;6.922;2023-05-14T17:24:56;21.80;82.20
53254;DHT22;39148;53.332;6.922;2023-05-14T17:27:22;22.00;84.30
53254;DHT22;39148;53.332;6.922;2023-05-14T17:29:48;21.90;84.00
53254;DHT22;39148;53.332;6.922;2023-05-14T17:32:16;21.80;82.20
53254;DHT22;39148;53.332;6.922;2023-05-14T17:34:42;21.80;84.30
53254;DHT22;39148;53.332;6.922;2023-05-14T17:37:08;21.70;84.10
53254;DHT22;39148;53.332;6.922;2023-05-14T17:39:33;21.70;82.10
53254;DHT22;39148;53.332;6.922;2023-05-14T17:41:59;21.70;84.00
53254;DHT22;39148;53.332;6.922;2023-05-14T17:44:25;21.70;84.20
53254;DHT22;39148;53.332;6.922;2023-05-14T17:46:50;21.60;82.10
53254;DHT22;39148;53.332;6.922;2023-05-14T17:49:16;21.70;82.10
53254;DHT22;39148;53.332;6.922;2023-05-14T17:51:42;21.60;81.90
53254;DHT22;39148;53.332;6.922;2023-05-14T17:54:07;21.70;82.20
53254;DHT22;39148;53.332;6.922;2023-05-14T17:56:33;21.60;82.20
53254;DHT22;39148;53.332;6.922;2023-05-14T17:58:59;21.60;82.20
53254;DHT22;39148;53.332;6.922;2023-05-14T18:01:25;21.60;84.50
53254;DHT22;39148;53.332;6.922;2023-05-14T18:03:51;21.60;84.20
53254;DHT22;39148;53.332;6.922;2023-05-14T18:06:16;21.60;84.10
53254;DHT22;39148;53.332;6.922;2023-05-14T18:08:42;21.60;84.60
53254;DHT22;39148;53.332;6.922;2023-05-14T18:11:08;21.60;82.40
53254;DHT22;39148;53.332;6.922;2023-05-14T18:13:33;21.60;82.50
53254;DHT22;39148;53.332;6.922;2023-05-14T18:15:59;21.50;82.40
53254;DHT22;39148;53.332;6.922;2023-05-14T18:18:25;21.50;82.40
53254;DHT22;39148;53.332;6.922;2023-05-14T18:20:51;21.60;82.40
53254;DHT22;39148;53.332;6.922;2023-05-14T18:23:17;21.50;82.50
53254;DHT22;39148;53.332;6.922;2023-05-14T18:25:43;21.40;82.50
53254;DHT22;39148;53.332;6.922;2023-05-14T18:28:09;21.40;84.40
53254;DHT22;39148;53.332;6.922;2023-05-14T18:30:34;21.30;84.60
53254;DHT22;39148;53.332;6.922;2023-05-14T18:33:00;21.40;82.60
53254;DHT22;39148;53.332;6.922;2023-05-14T18:35:26;21.30;84.70
53254;DHT22;39148;53.332;6.922;2023-05-14T18:37:52;21.20;84.50
53254;DHT22;39148;53.332;6.922;2023-05-14T18:40:18;21.20;84.60
53254;DHT22;39148;53.332;6.922;2023-05-14T18:42:44;21.30;84.70
53254;DHT22;39148;53.332;6.922;2023-05-14T18:45:10;21.30;84.60
53254;DHT22;39148;53.332;6.922;2023-05-14T18:47:36;21.30;84.80
53254;DHT22;39148;53.332;6.922;2023-05-14T18:50:02;21.10;84.90
53254;DHT22;39148;53.332;6.922;2023-05-14T18:52:29;21.20;82.70
53254;DHT22;39148;53.332;6.922;2023-05-14T18:54:55;21.10;84.70
53254;DHT22;39148;53.332;6.922;2023-05-14T18:57:21;21.20;83.00
53254;DHT22;39148;53.332;6.922;2023-05-14T18:59:46;21.20;85.20
53254;DHT22;39148;53.332;6.922;2023-05-14T19:02:12;21.10;82.80
53254;DHT22;39148;53.332;6.922;2023-05-14T19:04:38;21.00;84.80
53254;DHT22;39148;53.332;6.922;2023-05-14T19:07:05;21.00;84.90
53254;DHT22;39148;53.332;6.922;2023-05-14T19:09:31;21.00;85.00
53254;DHT22;39148;53.332;6.922;2023-05-14T19:11:57;21.00;85.00
53254;DHT22;39148;53.332;6.922;2023-05-14T19:14:22;21.00;84.90
53254;DHT22;39148;53.332;6.922;2023-05-14T19:16:48;20.90;83.10
53254;DHT22;39148;53.332;6.922;2023-05-14T19:19:14;20.90;85.10
53254;DHT22;39148;53.332;6.922;2023-05-14T19:21:40;20.90;84.90
53254;DHT22;39148;53.332;6.922;2023-05-14T19:24:05;20.90;85.00
53254;DHT22;39148;53.332;6.922;2023-05-14T19:26:31;20.60;84.90
53254;DHT22;39148;53.332;6.922;2023-05-14T19:28:57;20.70;85.00
53254;DHT22;39148;53.332;6.922;2023-05-14T19:31:24;20.80;83.20
53254;DHT22;39148;53.332;6.922;2023-05-14T19:33:50;20.80;85.10
53254;DHT22;39148;53.332;6.922;2023-05-14T19:36:20;20.60;85.10